Time;durP1;ratioP1;P1;durP2;ratioP2;P2;SDS_P1;SDS_P2;PMS_P1;PMS_P2;Temp;Humidity;BMP_temperature;BMP_pressure;BME280_temperature;BME280_humidity;BME280_pressure;Samples;Min_cycle;Max_cycle;Signal;HPM_P1;HPM_P2
2021/01/29 00:01:10;;;;;;;1.00;0.80;;;10.20;76.50;;;;;;5082313;28;20372;-8
2021/01/29 00:03:35;;;;;;;2.13;1.10;;;10.20;76.70;;;;;;5084239;28;20104;-8
2021/01/29 00:06:04;;;;;;;1.33;0.90;;;10.30;76.60;;;;;;5083827;28;20037;-8
2021/01/29 00:08:31;;;;;;;1.25;0.80;;;10.20;76.40;;;;;;5083934;28;20032;-8
2021/01/29 00:10:56;;;;;;;2.25;1.10;;;10.30;75.90;;;;;;5083931;28;20027;-8
2021/01/29 00:13:22;;;;;;;1.30;0.93;;;10.40;75.70;;;;;;5085298;28;20040;-9
2021/01/29 00:15:48;;;;;;;1.85;0.98;;;10.30;75.90;;;;;;5083911;28;20056;-8
2021/01/29 00:18:13;;;;;;;1.90;0.70;;;10.30;75.50;;;;;;5083437;28;20082;-9
2021/01/29 00:20:39;;;;;;;1.35;0.80;;;10.40;75.70;;;;;;5083522;28;20357;-9
2021/01/29 00:23:04;;;;;;;1.52;0.88;;;10.30;75.40;;;;;;5083451;28;20044;-8
2021/01/29 00:25:32;;;;;;;1.67;0.80;;;10.20;75.70;;;;;;5085353;28;20039;-8
2021/01/29 00:27:58;;;;;;;1.58;0.90;;;10.10;76.10;;;;;;5082746;28;20040;-8
2021/01/29 00:30:23;;;;;;;1.63;0.90;;;10.10;76.00;;;;;;5083154;28;20044;-8
2021/01/29 00:32:50;;;;;;;1.60;0.90;;;10.10;76.20;;;;;;5083441;28;20327;-8
2021/01/29 00:35:16;;;;;;;2.53;1.00;;;10.10;76.10;;;;;;5083170;28;20096;-8
2021/01/29 00:37:42;;;;;;;1.13;0.70;;;9.80;76.70;;;;;;5083480;28;20051;-8
2021/01/29 00:40:08;;;;;;;1.55;0.80;;;9.70;77.20;;;;;;5085291;28;20028;-9
2021/01/29 00:42:33;;;;;;;1.20;0.80;;;9.90;77.30;;;;;;5083114;28;20040;-9
2021/01/29 00:44:59;;;;;;;1.10;0.77;;;9.90;76.60;;;;;;5083130;28;20249;-8
2021/01/29 00:47:24;;;;;;;1.20;0.80;;;10.00;76.80;;;;;;5082139;28;20316;-9
2021/01/29 00:49:50;;;;;;;1.13;0.80;;;10.00;76.40;;;;;;5083484;28;20216;-8
2021/01/29 00:52:16;;;;;;;2.75;0.98;;;10.20;75.70;;;;;;5084661;28;20055;-8
2021/01/29 00:54:41;;;;;;;1.30;0.80;;;10.20;75.60;;;;;;5083358;28;20029;-8
2021/01/29 00:57:09;;;;;;;1.05;0.70;;;10.10;75.60;;;;;;5083057;28;20036;-9
2021/01/29 00:59:35;;;;;;;1.73;0.80;;;10.10;75.20;;;;;;5083018;28;20085;-9
2021/01/29 01:02:00;;;;;;;1.45;0.70;;;10.00;76.00;;;;;;5082833;28;20315;-8
2021/01/29 01:04:26;;;;;;;1.05;0.80;;;10.10;75.80;;;;;;5084771;28;20308;-8
2021/01/29 01:06:52;;;;;;;2.40;0.70;;;10.00;75.80;;;;;;5083254;28;20036;-9
2021/01/29 01:09:17;;;;;;;1.95;0.80;;;9.90;76.10;;;;;;5083083;28;20063;-8
2021/01/29 01:11:43;;;;;;;1.05;0.70;;;10.00;76.00;;;;;;5082642;28;20032;-9
2021/01/29 01:14:08;;;;;;;0.77;0.60;;;9.90;75.70;;;;;;5083118;28;20060;-9
2021/01/29 01:16:34;;;;;;;1.50;0.63;;;10.20;75.40;;;;;;5084266;28;20029;-9
2021/01/29 01:18:59;;;;;;;0.68;0.50;;;10.30;75.20;;;;;;5083181;28;20104;-9
2021/01/29 01:21:25;;;;;;;0.70;0.50;;;10.20;75.20;;;;;;5081470;28;20183;-7
2021/01/29 01:23:50;;;;;;;1.17;0.68;;;10.20;74.90;;;;;;5082818;28;20098;-9
2021/01/29 01:26:16;;;;;;;1.38;0.65;;;10.20;74.60;;;;;;5082514;28;20037;-8
2021/01/29 01:28:41;;;;;;;1.00;0.60;;;10.30;74.70;;;;;;5084444;28;20033;-8
2021/01/29 01:31:07;;;;;;;1.10;0.60;;;10.20;74.30;;;;;;5082456;28;20036;-8
2021/01/29 01:33:32;;;;;;;0.80;0.60;;;10.10;74.90;;;;;;5081839;28;20095;-8
2021/01/29 01:35:58;;;;;;;0.95;0.57;;;10.20;74.40;;;;;;5082444;28;20036;-8
2021/01/29 01:38:23;;;;;;;1.42;0.60;;;10.20;74.40;;;;;;5082244;28;20115;-8
2021/01/29 01:40:49;;;;;;;0.82;0.60;;;10.20;74.80;;;;;;5082379;28;20032;-8
2021/01/29 01:43:15;;;;;;;0.80;0.60;;;10.30;74.60;;;;;;5082979;28;20017;-8
2021/01/29 01:45:57;;;;;;;0.50;0.50;;;10.30;74.10;;;;;;5082470;28;20040;-7
2021/01/29 01:48:28;;;;;;;1.73;0.60;;;10.40;74.30;;;;;;5082454;28;20036;-7
2021/01/29 01:50:54;;;;;;;1.05;0.60;;;10.30;73.80;;;;;;5065016;28;20032;-8
2021/01/29 01:53:28;;;;;;;0.98;0.40;;;10.30;74.20;;;;;;5081243;28;20327;-8
2021/01/29 01:56:14;;;;;;;0.57;0.40;;;10.30;74.70;;;;;;5081153;28;20020;-8
2021/01/29 01:58:40;;;;;;;0.63;0.50;;;10.30;74.60;;;;;;5083865;28;20036;-7
2021/01/29 02:01:06;;;;;;;0.88;0.50;;;10.30;74.70;;;;;;5081663;28;20103;-8
2021/01/29 02:03:32;;;;;;;0.77;0.50;;;10.30;74.80;;;;;;5081596;28;20346;-8
2021/01/29 02:05:57;;;;;;;0.73;0.50;;;10.40;74.40;;;;;;5081077;28;20036;-8
2021/01/29 02:08:23;;;;;;;0.70;0.50;;;10.40;74.40;;;;;;5082492;28;20063;-9
2021/01/29 02:10:49;;;;;;;0.90;0.60;;;10.20;74.80;;;;;;5080912;28;20080;-8
2021/01/29 02:13:15;;;;;;;2.05;0.68;;;10.30;74.60;;;;;;5083738;28;20055;-7
2021/01/29 02:15:44;;;;;;;0.73;0.50;;;10.40;74.20;;;;;;5081288;28;20036;-7
2021/01/29 02:18:28;;;;;;;0.80;0.60;;;10.20;75.00;;;;;;5064834;28;20036;-8
2021/01/29 02:21:28;;;;;;;0.70;0.50;;;10.30;74.70;;;;;;5082282;28;20040;-8
2021/01/29 02:24:21;;;;;;;0.50;0.43;;;10.20;75.30;;;;;;5083780;28;20033;-8
2021/01/29 02:27:08;;;;;;;2.65;0.40;;;10.10;75.70;;;;;;5085022;28;20095;-8
2021/01/29 02:29:43;;;;;;;0.60;0.50;;;10.20;75.10;;;;;;5085748;28;20040;-8
2021/01/29 02:32:42;;;;;;;1.30;0.40;;;10.20;75.10;;;;;;5084843;28;20246;-9
2021/01/29 02:35:32;;;;;;;0.50;0.40;;;10.10;75.20;;;;;;5085496;28;20035;-9
2021/01/29 02:38:35;;;;;;;1.25;0.40;;;10.00;75.90;;;;;;5084470;28;20217;-8
2021/01/29 02:41:08;;;;;;;0.30;0.30;;;9.90;76.20;;;;;;5085810;28;20021;-9
2021/01/29 02:44:09;;;;;;;0.88;0.50;;;9.90;76.10;;;;;;5087077;28;20020;-8
2021/01/29 02:46:47;;;;;;;1.52;0.50;;;9.90;76.10;;;;;;5085253;28;20278;-8
2021/01/29 02:49:18;;;;;;;0.50;0.38;;;9.90;76.20;;;;;;5086200;28;20391;-9
2021/01/29 02:52:10;;;;;;;0.75;0.50;;;9.80;76.70;;;;;;5084213;28;20231;-8
2021/01/29 02:54:45;;;;;;;0.50;0.50;;;9.90;76.80;;;;;;5085715;28;20100;-8
2021/01/29 02:57:29;;;;;;;1.08;0.50;;;9.90;77.10;;;;;;5068368;28;20041;-8
2021/01/29 03:00:05;;;;;;;0.75;0.47;;;9.90;77.70;;;;;;5084059;28;20081;-8
2021/01/29 03:02:55;;;;;;;0.73;0.30;;;10.10;76.90;;;;;;5084236;28;20478;-8
2021/01/29 03:05:22;;;;;;;0.40;0.30;;;10.10;76.80;;;;;;5054945;28;20352;-9
2021/01/29 03:07:55;;;;;;;1.75;0.45;;;10.10;77.10;;;;;;5084177;28;20078;-8
2021/01/29 03:10:34;;;;;;;0.32;0.32;;;10.00;77.20;;;;;;5085566;28;20028;-8
2021/01/29 03:13:03;;;;;;;0.52;0.40;;;10.00;77.00;;;;;;5084519;28;20090;-9
2021/01/29 03:15:35;;;;;;;1.00;0.40;;;10.20;76.80;;;;;;5083789;28;20239;-8
2021/01/29 03:18:09;;;;;;;1.13;0.45;;;10.10;76.70;;;;;;5084927;28;20343;-8
2021/01/29 03:20:39;;;;;;;1.15;0.50;;;10.20;76.50;;;;;;5068165;28;20139;-9
2021/01/29 03:23:17;;;;;;;2.80;0.60;;;9.90;77.60;;;;;;5067493;28;20041;-7
2021/01/29 03:25:45;;;;;;;1.27;0.50;;;9.90;77.80;;;;;;5085309;28;20025;-8
2021/01/29 03:28:15;;;;;;;0.55;0.55;;;10.00;77.80;;;;;;5083970;28;20339;-7
2021/01/29 03:30:43;;;;;;;0.40;0.40;;;9.90;78.00;;;;;;5067039;28;20036;-8
2021/01/29 03:33:11;;;;;;;0.40;0.40;;;10.00;78.10;;;;;;5065463;28;20028;-9
2021/01/29 03:35:39;;;;;;;0.35;0.30;;;9.90;78.80;;;;;;5083470;28;20052;-9
2021/01/29 03:38:23;;;;;;;0.95;0.40;;;10.00;78.40;;;;;;5050088;28;20049;-9
2021/01/29 03:44:33;;;;;;;0.55;0.40;;;10.10;78.40;;;;;;5035407;28;20055;-8
2021/01/29 03:47:03;;;;;;;0.90;0.50;;;9.90;79.20;;;;;;5084521;28;20207;-9
2021/01/29 03:49:39;;;;;;;0.50;0.40;;;9.90;79.40;;;;;;5085574;28;20020;-9
2021/01/29 03:52:14;;;;;;;1.15;0.38;;;10.00;79.30;;;;;;5083278;28;20037;-9
2021/01/29 03:55:01;;;;;;;1.48;0.50;;;10.00;79.40;;;;;;5083084;28;20094;-8
2021/01/29 03:57:33;;;;;;;2.53;0.50;;;10.10;78.90;;;;;;5084092;28;20119;-9
2021/01/29 04:00:16;;;;;;;1.15;0.50;;;10.20;78.50;;;;;;5049796;28;20024;-8
2021/01/29 04:02:53;;;;;;;0.90;0.43;;;10.30;78.20;;;;;;5084029;28;20365;-8
2021/01/29 04:05:22;;;;;;;1.35;0.52;;;10.20;78.20;;;;;;5066515;28;20041;-9
2021/01/29 04:07:51;;;;;;;0.70;0.30;;;10.30;78.10;;;;;;5083000;28;20070;-7
2021/01/29 04:10:21;;;;;;;0.40;0.40;;;10.40;77.60;;;;;;5084405;28;20096;-7
2021/01/29 04:12:51;;;;;;;1.20;0.40;;;10.40;77.60;;;;;;5066558;28;20040;-7
2021/01/29 04:15:28;;;;;;;0.93;0.50;;;10.40;77.70;;;;;;5082894;28;20033;-7
2021/01/29 04:17:59;;;;;;;0.85;0.50;;;10.10;78.70;;;;;;5083621;28;20064;-9
2021/01/29 04:20:57;;;;;;;1.15;0.40;;;10.20;78.00;;;;;;5066854;28;20032;-9
2021/01/29 04:23:38;;;;;;;0.60;0.40;;;10.40;77.30;;;;;;5081952;28;20049;-8
2021/01/29 04:26:16;;;;;;;2.25;0.50;;;10.20;78.10;;;;;;5068378;28;20033;-7
2021/01/29 04:28:44;;;;;;;0.82;0.40;;;10.00;79.40;;;;;;5083931;28;20040;-7
2021/01/29 04:31:11;;;;;;;1.45;0.43;;;9.90;79.40;;;;;;5066258;28;20272;-7
2021/01/29 04:33:47;;;;;;;2.28;0.50;;;9.90;79.40;;;;;;5082611;28;20044;-9
2021/01/29 04:36:14;;;;;;;1.33;0.50;;;10.00;79.10;;;;;;5066164;28;20048;-9
2021/01/29 04:38:47;;;;;;;1.38;0.55;;;9.90;78.30;;;;;;5082484;28;20224;-9
2021/01/29 04:41:30;;;;;;;1.05;0.40;;;9.80;79.50;;;;;;5082132;28;20032;-8
2021/01/29 04:44:26;;;;;;;2.10;0.43;;;9.60;79.30;;;;;;5082364;28;20037;-8
2021/01/29 04:47:18;;;;;;;0.57;0.40;;;9.80;79.20;;;;;;5082542;28;20033;-8
2021/01/29 04:49:52;;;;;;;0.50;0.30;;;9.80;79.00;;;;;;5083545;28;20024;-9
2021/01/29 04:52:42;;;;;;;0.93;0.50;;;9.60;79.10;;;;;;5082797;28;20036;-8
2021/01/29 04:55:37;;;;;;;1.00;0.50;;;9.60;79.50;;;;;;5083831;28;20032;-8
2021/01/29 04:58:17;;;;;;;0.73;0.40;;;9.80;78.90;;;;;;5082235;28;20039;-9
2021/01/29 05:01:23;;;;;;;0.68;0.40;;;9.70;79.20;;;;;;5065561;28;20040;-8
2021/01/29 05:04:01;;;;;;;0.90;0.50;;;9.60;78.70;;;;;;5083394;28;20025;-9
2021/01/29 05:06:45;;;;;;;0.98;0.50;;;9.70;78.70;;;;;;5083218;28;20048;-9
2021/01/29 05:09:26;;;;;;;0.50;0.40;;;9.80;78.10;;;;;;5081737;28;20044;-9
2021/01/29 05:11:58;;;;;;;1.00;0.50;;;9.60;78.30;;;;;;5065777;28;20036;-9
2021/01/29 05:14:27;;;;;;;1.67;0.45;;;9.70;78.20;;;;;;5082874;28;20037;-8
2021/01/29 05:17:07;;;;;;;1.55;0.52;;;9.60;77.50;;;;;;5082704;28;20227;-7
2021/01/29 05:19:54;;;;;;;1.90;0.45;;;9.60;78.20;;;;;;5083538;28;20083;-8
2021/01/29 05:22:48;;;;;;;1.08;0.40;;;9.30;78.80;;;;;;5083487;28;20024;-8
2021/01/29 05:25:42;;;;;;;2.63;0.50;;;9.10;80.00;;;;;;5083526;28;20036;-8
2021/01/29 05:28:30;;;;;;;0.35;0.32;;;9.10;81.00;;;;;;5083494;28;20028;-8
2021/01/29 05:31:30;;;;;;;1.02;0.40;;;9.20;79.90;;;;;;5081254;28;20376;-9
2021/01/29 05:34:36;;;;;;;0.63;0.40;;;9.50;78.80;;;;;;5081850;28;20033;-8
2021/01/29 05:37:20;;;;;;;1.85;0.47;;;9.70;78.00;;;;;;5082424;28;20048;-7
2021/01/29 05:40:15;;;;;;;1.77;0.45;;;9.60;78.40;;;;;;5081746;28;20040;-8
2021/01/29 05:42:47;;;;;;;0.88;0.30;;;9.60;77.90;;;;;;5058796;28;20268;-9
2021/01/29 05:45:31;;;;;;;1.58;0.55;;;9.40;78.40;;;;;;5082600;28;20374;-9
2021/01/29 05:48:31;;;;;;;3.85;0.50;;;9.60;77.70;;;;;;5081524;28;20035;-8
2021/01/29 05:51:24;;;;;;;1.85;0.40;;;9.40;78.30;;;;;;5081555;28;20092;-8
2021/01/29 05:54:11;;;;;;;2.53;0.50;;;9.50;78.10;;;;;;5081718;28;20037;-9
2021/01/29 05:56:45;;;;;;;3.10;0.50;;;9.60;78.00;;;;;;5080986;28;20036;-8
2021/01/29 05:59:20;;;;;;;1.50;0.50;;;9.50;78.40;;;;;;5083598;28;20036;-7
2021/01/29 06:01:59;;;;;;;1.35;0.60;;;9.60;77.60;;;;;;5087154;28;20235;-7
2021/01/29 06:04:55;;;;;;;3.20;0.93;;;9.60;77.90;;;;;;5087087;28;20051;-8
2021/01/29 06:07:31;;;;;;;3.10;0.70;;;9.80;77.00;;;;;;5035746;28;20107;-8
2021/01/29 06:10:34;;;;;;;3.10;0.85;;;9.40;78.30;;;;;;5085458;28;20040;-7
2021/01/29 06:13:30;;;;;;;2.45;0.82;;;9.60;77.70;;;;;;5085259;28;20032;-8
2021/01/29 06:16:23;;;;;;;3.55;0.60;;;9.70;77.70;;;;;;5086473;28;20039;-9
2021/01/29 06:19:20;;;;;;;1.00;0.65;;;9.70;77.50;;;;;;5084400;28;20104;-8
2021/01/29 06:21:58;;;;;;;1.95;0.50;;;9.70;78.00;;;;;;5053432;28;20036;-7
2021/01/29 06:24:59;;;;;;;1.60;0.60;;;9.80;77.70;;;;;;5086126;28;20067;-8
2021/01/29 06:27:54;;;;;;;1.33;0.60;;;9.50;77.20;;;;;;5085629;28;20041;-8
2021/01/29 06:30:32;;;;;;;3.47;0.57;;;9.50;77.90;;;;;;5084611;28;20040;-7
2021/01/29 06:32:57;;;;;;;2.47;0.68;;;9.60;77.10;;;;;;5084963;28;20040;-7
2021/01/29 06:36:04;;;;;;;2.63;0.60;;;9.70;77.00;;;;;;5085766;28;20065;-7
2021/01/29 06:38:37;;;;;;;2.60;0.80;;;9.60;76.90;;;;;;5004879;28;20050;-7
2021/01/29 06:41:03;;;;;;;6.45;0.60;;;9.60;77.00;;;;;;4988564;28;20276;-8
2021/01/29 06:43:37;;;;;;;3.30;0.50;;;9.70;77.00;;;;;;5049779;28;20121;-9
2021/01/29 06:46:02;;;;;;;1.17;0.50;;;9.40;77.20;;;;;;5084924;28;20215;-9
2021/01/29 06:48:47;;;;;;;1.88;0.80;;;9.40;77.80;;;;;;5085669;28;20043;-8
2021/01/29 06:51:55;;;;;;;1.90;0.50;;;9.40;77.00;;;;;;5084690;28;20047;-8
2021/01/29 06:54:52;;;;;;;1.33;0.50;;;9.20;77.70;;;;;;5051728;28;20060;-8
2021/01/29 06:57:29;;;;;;;1.13;0.57;;;9.30;77.30;;;;;;5085537;28;20032;-8
2021/01/29 07:00:16;;;;;;;1.40;0.60;;;9.40;77.60;;;;;;5084485;28;20048;-8
2021/01/29 07:02:53;;;;;;;1.20;0.50;;;9.40;77.60;;;;;;5085218;28;20032;-8
2021/01/29 07:05:44;;;;;;;1.80;0.50;;;9.40;76.90;;;;;;5085024;28;20043;-9
2021/01/29 07:08:13;;;;;;;1.33;0.43;;;9.40;76.80;;;;;;5068721;28;20032;-8
2021/01/29 07:10:48;;;;;;;1.23;0.55;;;9.30;76.40;;;;;;5086377;28;20079;-9
2021/01/29 07:13:31;;;;;;;2.15;0.50;;;9.10;77.30;;;;;;5084754;28;20095;-9
2021/01/29 07:16:18;;;;;;;1.30;0.50;;;9.00;77.60;;;;;;5084418;28;20082;-8
2021/01/29 07:18:52;;;;;;;1.15;0.50;;;8.90;78.10;;;;;;5090386;28;20039;-9
2021/01/29 07:21:54;;;;;;;1.13;0.40;;;8.90;77.90;;;;;;5085331;28;20383;-8
2021/01/29 07:24:30;;;;;;;0.68;0.40;;;8.80;78.40;;;;;;5083814;28;20036;-7
2021/01/29 07:27:26;;;;;;;2.05;0.50;;;8.80;78.80;;;;;;5067921;28;20044;-8
2021/01/29 07:30:23;;;;;;;0.60;0.40;;;8.90;78.80;;;;;;5081682;28;20046;-8
2021/01/29 07:33:09;;;;;;;1.95;0.47;;;8.90;79.00;;;;;;5084733;28;20040;-9
2021/01/29 07:36:00;;;;;;;0.57;0.40;;;8.90;78.50;;;;;;5069711;28;20044;-8
2021/01/29 07:38:49;;;;;;;2.40;0.40;;;8.90;79.10;;;;;;5084117;28;20057;-7
2021/01/29 07:41:28;;;;;;;0.95;0.40;;;9.00;79.10;;;;;;5083642;28;20036;-9
2021/01/29 07:44:09;;;;;;;0.52;0.40;;;8.90;79.50;;;;;;5083842;28;20275;-8
2021/01/29 07:47:11;;;;;;;1.37;0.50;;;9.10;79.20;;;;;;5086427;28;20020;-9
2021/01/29 07:49:52;;;;;;;1.20;0.40;;;9.20;78.90;;;;;;5085824;28;20028;-8
2021/01/29 07:52:44;;;;;;;3.15;0.50;;;9.20;79.40;;;;;;5084766;28;20033;-8
2021/01/29 07:55:19;;;;;;;;;;;9.30;78.90;;;;;;5084512;28;20350;-9
2021/01/29 07:58:30;;;;;;;1.30;0.38;;;9.10;79.00;;;;;;5082868;28;19908;-8
2021/01/29 08:01:00;;;;;;;0.80;0.30;;;9.30;79.40;;;;;;5078855;28;20327;-9
2021/01/29 08:03:28;;;;;;;2.47;0.40;;;9.40;79.00;;;;;;5084380;28;20043;-8
2021/01/29 08:06:12;;;;;;;1.00;0.30;;;9.50;79.00;;;;;;5084131;28;20040;-7
2021/01/29 08:09:07;;;;;;;0.93;0.30;;;9.50;78.70;;;;;;5084223;28;20302;-9
2021/01/29 08:11:34;;;;;;;0.40;0.30;;;9.50;79.20;;;;;;5083112;28;20139;-8
2021/01/29 08:14:21;;;;;;;0.60;0.40;;;9.50;79.10;;;;;;5082505;28;20029;-8
2021/01/29 08:16:52;;;;;;;0.30;0.30;;;9.60;79.00;;;;;;5084940;28;20021;-8
2021/01/29 08:19:25;;;;;;;0.63;0.30;;;9.70;78.90;;;;;;5084571;28;20193;-7
2021/01/29 08:22:18;;;;;;;0.40;0.30;;;9.80;78.60;;;;;;5081950;28;20082;-8
2021/01/29 08:24:58;;;;;;;0.35;0.32;;;9.80;78.70;;;;;;5083784;28;20028;-8
2021/01/29 08:28:09;;;;;;;0.30;0.20;;;9.90;78.50;;;;;;5082727;28;20063;-9
2021/01/29 08:31:07;;;;;;;0.40;0.30;;;9.90;77.90;;;;;;5052018;28;20047;-8
2021/01/29 08:33:38;;;;;;;1.52;0.55;;;9.70;77.30;;;;;;5069140;28;20036;-9
2021/01/29 08:36:37;;;;;;;0.30;0.30;;;10.00;77.10;;;;;;5083041;28;20060;-9
2021/01/29 08:39:08;;;;;;;0.52;0.40;;;10.10;76.60;;;;;;5083272;28;20036;-8
2021/01/29 08:41:40;;;;;;;0.50;0.30;;;10.20;76.70;;;;;;5081638;28;20036;-9
2021/01/29 08:44:05;;;;;;;;;;;10.10;75.90;;;;;;5082599;28;20100;-9
2021/01/29 08:46:48;;;;;;;0.85;0.47;;;10.00;76.60;;;;;;5085064;28;19900;-8
2021/01/29 08:49:48;;;;;;;1.00;0.40;;;10.10;76.70;;;;;;5082669;28;20040;-9
2021/01/29 08:52:43;;;;;;;1.17;0.80;;;10.00;75.60;;;;;;5083926;28;20034;-9
2021/01/29 08:55:59;;;;;;;0.63;0.30;;;10.20;75.20;;;;;;5082579;28;20036;-9
2021/01/29 08:58:39;;;;;;;0.65;0.40;;;10.20;74.00;;;;;;4982929;28;20038;-8
2021/01/29 09:01:43;;;;;;;0.67;0.40;;;10.00;74.50;;;;;;4966885;28;20086;-9
2021/01/29 09:04:28;;;;;;;0.40;0.40;;;10.10;74.40;;;;;;5074570;28;20070;-8
2021/01/29 09:06:54;;;;;;;0.88;0.40;;;10.10;74.00;;;;;;5066757;28;20040;-8
2021/01/29 09:09:31;;;;;;;0.50;0.38;;;10.20;73.80;;;;;;5065167;28;20063;-9
2021/01/29 09:11:58;;;;;;;0.40;0.30;;;10.00;74.10;;;;;;5081717;28;20212;-9
2021/01/29 09:14:28;;;;;;;0.77;0.40;;;10.00;73.60;;;;;;5081760;28;20040;-9
2021/01/29 09:17:21;;;;;;;0.90;0.30;;;10.20;73.90;;;;;;5081806;28;20052;-8
2021/01/29 09:20:01;;;;;;;0.38;0.30;;;9.90;74.40;;;;;;5077430;28;20331;-8
2021/01/29 09:22:42;;;;;;;0.98;0.40;;;10.00;74.00;;;;;;5083353;28;20363;-8
2021/01/29 09:25:10;;;;;;;0.38;0.30;;;10.20;73.80;;;;;;5082422;28;20033;-9
2021/01/29 09:28:13;;;;;;;0.50;0.40;;;10.00;73.90;;;;;;5082269;28;20252;-7
2021/01/29 09:30:55;;;;;;;0.50;0.30;;;9.90;74.40;;;;;;5082074;28;20032;-9
2021/01/29 09:33:36;;;;;;;0.80;0.40;;;9.90;73.70;;;;;;5082492;28;20036;-7
2021/01/29 09:36:18;;;;;;;1.35;0.43;;;9.90;74.20;;;;;;5065220;28;20044;-9
2021/01/29 09:39:09;;;;;;;0.60;0.40;;;9.90;74.00;;;;;;5081396;28;20343;-8
2021/01/29 09:42:00;;;;;;;0.40;0.40;;;10.10;73.80;;;;;;5082129;28;20052;-8
2021/01/29 09:44:28;;;;;;;0.50;0.30;;;10.30;72.80;;;;;;5081251;28;20280;-9
2021/01/29 09:46:56;;;;;;;0.93;0.50;;;10.60;71.90;;;;;;5082799;28;20031;-7
2021/01/29 09:49:23;;;;;;;0.77;0.30;;;10.80;70.40;;;;;;5066478;28;20024;-9
2021/01/29 09:52:25;;;;;;;0.40;0.40;;;10.70;70.80;;;;;;5081082;28;20045;-9
2021/01/29 09:55:10;;;;;;;0.80;0.40;;;11.10;70.00;;;;;;5082805;28;20040;-8
2021/01/29 09:58:02;;;;;;;0.55;0.38;;;12.20;67.10;;;;;;5081142;28;20044;-7
2021/01/29 10:00:34;;;;;;;1.30;0.50;;;12.40;65.70;;;;;;5046327;28;20043;-9
2021/01/29 10:03:30;;;;;;;0.77;0.50;;;12.40;64.40;;;;;;5048807;28;20039;-9
2021/01/29 10:06:12;;;;;;;1.10;0.60;;;12.20;64.40;;;;;;5067097;28;20397;-8
2021/01/29 10:08:49;;;;;;;0.40;0.30;;;12.30;65.20;;;;;;5065483;28;20033;-8
2021/01/29 10:11:21;;;;;;;2.25;0.50;;;12.40;64.30;;;;;;5064602;28;20039;-7
2021/01/29 10:14:03;;;;;;;0.47;0.40;;;12.30;64.80;;;;;;5066121;28;20032;-8
2021/01/29 10:16:51;;;;;;;1.00;0.63;;;12.20;64.40;;;;;;5082831;28;20032;-8
2021/01/29 10:19:22;;;;;;;0.93;0.30;;;12.10;64.00;;;;;;5081903;28;20052;-7
2021/01/29 10:21:56;;;;;;;33.00;1.77;;;12.40;63.10;;;;;;5082742;28;20029;-7
2021/01/29 10:24:31;;;;;;;12.25;0.90;;;12.90;63.00;;;;;;5082456;28;20331;-8
2021/01/29 10:27:01;;;;;;;10.18;1.27;;;13.80;60.70;;;;;;5081303;28;20040;-9
2021/01/29 10:29:26;;;;;;;1.95;0.40;;;13.60;60.10;;;;;;5080720;28;20359;-9
2021/01/29 10:32:10;;;;;;;0.47;0.38;;;13.40;59.90;;;;;;5063983;28;20025;-8
2021/01/29 10:34:43;;;;;;;6.22;0.50;;;13.00;61.80;;;;;;5082590;28;20063;-9
2021/01/29 10:37:24;;;;;;;1.05;0.30;;;13.50;60.90;;;;;;5080829;28;20090;-9
2021/01/29 10:40:11;;;;;;;3.83;0.35;;;14.10;58.60;;;;;;5082379;28;20033;-8
2021/01/29 10:43:01;;;;;;;1.30;0.38;;;14.30;58.50;;;;;;5082343;28;20037;-9
2021/01/29 10:45:58;;;;;;;3.03;0.40;;;15.20;54.60;;;;;;5067989;28;20380;-8
2021/01/29 10:48:47;;;;;;;0.30;0.30;;;14.80;55.30;;;;;;5084400;28;20141;-9
2021/01/29 10:51:36;;;;;;;0.50;0.38;;;14.80;55.30;;;;;;5084809;28;20029;-8
2021/01/29 10:54:02;;;;;;;2.10;0.47;;;15.00;54.50;;;;;;5084401;28;20036;-7
2021/01/29 10:56:45;;;;;;;1.35;0.50;;;15.80;53.40;;;;;;5067462;28;20041;-8
2021/01/29 10:59:34;;;;;;;0.68;0.45;;;15.70;53.30;;;;;;5068032;28;20039;-9
2021/01/29 11:02:02;;;;;;;1.08;0.30;;;14.90;55.10;;;;;;5085022;28;20043;-9
2021/01/29 11:04:32;;;;;;;0.70;0.40;;;14.50;56.00;;;;;;5087063;28;20082;-9
2021/01/29 11:07:20;;;;;;;1.02;0.40;;;14.60;56.50;;;;;;5068243;28;20041;-8
2021/01/29 11:09:51;;;;;;;0.30;0.30;;;14.10;56.50;;;;;;5084978;28;20045;-9
2021/01/29 11:12:26;;;;;;;1.08;0.30;;;13.90;57.90;;;;;;5067758;28;20351;-8
2021/01/29 11:14:56;;;;;;;0.30;0.30;;;13.90;57.70;;;;;;5084121;28;20036;-8
2021/01/29 11:17:30;;;;;;;0.70;0.38;;;13.90;57.20;;;;;;5084948;28;20051;-8
2021/01/29 11:19:55;;;;;;;0.47;0.40;;;13.80;57.80;;;;;;5068056;28;20033;-8
2021/01/29 11:22:28;;;;;;;0.35;0.32;;;13.30;58.60;;;;;;5085649;28;20216;-9
2021/01/29 11:25:00;;;;;;;0.68;0.40;;;13.10;59.90;;;;;;5083832;28;20327;-8
2021/01/29 11:27:37;;;;;;;1.50;0.50;;;13.60;58.00;;;;;;5084810;28;20332;-9
2021/01/29 11:30:16;;;;;;;1.65;0.40;;;13.70;56.90;;;;;;5084544;28;20035;-8
2021/01/29 11:32:42;;;;;;;0.60;0.40;;;13.80;56.50;;;;;;5067552;28;20117;-8
2021/01/29 11:35:36;;;;;;;1.85;0.40;;;14.10;56.30;;;;;;5083818;28;20074;-8
2021/01/29 11:38:14;;;;;;;0.50;0.35;;;14.00;55.50;;;;;;5084202;28;20047;-9
2021/01/29 11:40:51;;;;;;;0.52;0.38;;;14.10;56.30;;;;;;5085094;28;20034;-9
2021/01/29 11:43:29;;;;;;;1.63;0.43;;;14.00;55.90;;;;;;5085454;28;20029;-9
2021/01/29 11:46:25;;;;;;;0.47;0.40;;;14.50;55.00;;;;;;5084704;28;20052;-8
2021/01/29 11:48:57;;;;;;;0.90;0.40;;;14.60;54.60;;;;;;5061387;28;20039;-9
2021/01/29 11:51:29;;;;;;;0.50;0.40;;;14.90;54.90;;;;;;5083195;28;20039;-9
2021/01/29 11:54:12;;;;;;;0.93;0.50;;;15.30;53.60;;;;;;5084049;28;20143;-9
2021/01/29 11:56:58;;;;;;;0.70;0.40;;;15.60;52.80;;;;;;5068054;28;20040;-10
2021/01/29 11:59:36;;;;;;;0.85;0.40;;;15.90;51.70;;;;;;5084317;28;20155;-9
2021/01/29 12:02:15;;;;;;;0.47;0.30;;;15.70;50.60;;;;;;5084131;28;20071;-9
2021/01/29 12:04:52;;;;;;;2.00;0.50;;;15.60;51.20;;;;;;5069289;28;20256;-8
2021/01/29 12:07:23;;;;;;;1.23;0.50;;;15.70;51.50;;;;;;5083624;28;20036;-9
2021/01/29 12:10:22;;;;;;;0.60;0.40;;;15.90;51.70;;;;;;5083309;28;20044;-9
2021/01/29 12:13:11;;;;;;;0.70;0.47;;;15.70;51.90;;;;;;5021260;28;20038;-9
2021/01/29 12:16:07;;;;;;;1.77;0.40;;;15.40;51.30;;;;;;5066722;28;20059;-9
2021/01/29 12:18:33;;;;;;;0.90;0.52;;;15.50;51.90;;;;;;5066339;28;20107;-8
2021/01/29 12:21:06;;;;;;;1.17;0.40;;;15.40;51.40;;;;;;5082841;28;20044;-9
2021/01/29 12:24:05;;;;;;;0.63;0.50;;;15.50;51.30;;;;;;5083634;28;20040;-8
2021/01/29 12:26:52;;;;;;;1.38;0.50;;;15.50;51.00;;;;;;5082734;28;20051;-9
2021/01/29 12:29:23;;;;;;;2.58;0.50;;;15.70;51.50;;;;;;5083214;28;20032;-9
2021/01/29 12:32:22;;;;;;;1.90;0.47;;;15.70;50.90;;;;;;5067681;28;20039;-9
2021/01/29 12:35:03;;;;;;;2.42;0.50;;;15.30;51.10;;;;;;5082995;28;20028;-9
2021/01/29 12:37:34;;;;;;;1.30;0.50;;;15.20;50.90;;;;;;5084838;28;20044;-9
2021/01/29 12:40:23;;;;;;;2.47;0.47;;;15.10;51.30;;;;;;5082354;28;20097;-8
2021/01/29 12:43:06;;;;;;;3.25;0.52;;;14.90;50.80;;;;;;5083730;28;20059;-9
2021/01/29 12:45:48;;;;;;;1.75;0.50;;;14.60;51.60;;;;;;5066802;28;20035;-8
2021/01/29 12:48:43;;;;;;;1.40;0.50;;;14.40;50.90;;;;;;5066511;28;20319;-8
2021/01/29 12:51:31;;;;;;;1.65;0.80;;;14.20;50.50;;;;;;5054236;28;20033;-9
2021/01/29 12:54:09;;;;;;;0.98;0.50;;;14.40;50.80;;;;;;5081602;28;20227;-8
2021/01/29 12:56:37;;;;;;;0.52;0.40;;;14.20;50.10;;;;;;5081961;28;20224;-8
2021/01/29 12:59:04;;;;;;;1.30;0.45;;;14.10;50.40;;;;;;5083052;28;20028;-9
2021/01/29 13:01:36;;;;;;;0.95;0.52;;;13.90;51.20;;;;;;5085014;28;20055;-7
2021/01/29 13:04:09;;;;;;;1.67;0.55;;;13.80;50.80;;;;;;5083310;28;20036;-8
2021/01/29 13:06:51;;;;;;;2.85;0.63;;;13.70;51.80;;;;;;5065236;28;20032;-9
2021/01/29 13:09:42;;;;;;;1.42;0.50;;;13.60;50.50;;;;;;5065471;28;20332;-8
2021/01/29 13:12:38;;;;;;;1.50;0.40;;;13.50;51.80;;;;;;5081961;28;20029;-8
2021/01/29 13:15:23;;;;;;;1.38;0.47;;;13.30;52.20;;;;;;5083257;28;20040;-8
2021/01/29 13:18:03;;;;;;;0.40;0.40;;;13.30;52.50;;;;;;5081633;28;20044;-9
2021/01/29 13:20:34;;;;;;;0.73;0.30;;;13.40;51.70;;;;;;5081857;28;20046;-8
2021/01/29 13:23:16;;;;;;;;;;;13.40;52.50;;;;;;5082895;28;20036;-7
2021/01/29 13:26:00;;;;;;;0.75;0.32;;;13.30;51.60;;;;;;5084520;28;20233;-9
2021/01/29 13:28:27;;;;;;;0.93;0.45;;;13.30;52.20;;;;;;5083032;28;20032;-8
2021/01/29 13:30:52;;;;;;;0.60;0.40;;;13.60;52.00;;;;;;5082517;28;20104;-7
2021/01/29 13:33:30;;;;;;;0.30;0.30;;;13.80;52.50;;;;;;5081738;28;20323;-9
2021/01/29 13:36:08;;;;;;;0.82;0.40;;;13.70;51.60;;;;;;5064490;28;20098;-7
2021/01/29 13:38:36;;;;;;;0.80;0.30;;;13.50;52.90;;;;;;5082299;28;20402;-8
2021/01/29 13:41:26;;;;;;;1.38;0.40;;;13.50;52.80;;;;;;5082315;28;21839;-8
2021/01/29 13:43:51;;;;;;;0.60;0.40;;;13.10;52.90;;;;;;5081644;28;20220;-8
2021/01/29 13:46:37;;;;;;;2.30;0.32;;;13.30;52.70;;;;;;5084198;28;20029;-8
2021/01/29 13:49:12;;;;;;;1.08;0.40;;;13.40;52.60;;;;;;5082480;28;20041;-7
2021/01/29 13:51:38;;;;;;;0.40;0.38;;;13.30;53.10;;;;;;5082825;28;20254;-8
2021/01/29 13:54:03;;;;;;;0.95;0.50;;;13.30;53.00;;;;;;5064456;28;20052;-8
2021/01/29 13:56:40;;;;;;;0.57;0.38;;;13.40;52.50;;;;;;5081120;28;20040;-8
2021/01/29 13:59:31;;;;;;;1.30;0.43;;;13.10;53.20;;;;;;5081198;28;20028;-8
2021/01/29 14:02:19;;;;;;;0.43;0.40;;;12.80;54.60;;;;;;5061271;28;20328;-8
2021/01/29 14:04:47;;;;;;;0.40;0.38;;;12.70;54.90;;;;;;5081782;28;20032;-9